createdAt,value
2022-10-01T00:03:35.553Z,12.00
2022-10-01T00:07:44.134Z,12.30
2022-10-01T00:11:45.852Z,12.10
2022-10-01T00:15:47.618Z,12.60
2022-10-01T00:19:49.366Z,12.60
2022-10-01T00:23:59.481Z,12.60
2022-10-01T00:28:01.658Z,12.50
2022-10-01T00:32:03.503Z,12.20
2022-10-01T00:36:06.994Z,11.40
2022-10-01T00:40:09.086Z,10.70
2022-10-01T00:44:29.490Z,10.60
2022-10-01T00:48:40.003Z,11.20
2022-10-01T00:52:43.382Z,12.00
2022-10-01T00:56:46.113Z,11.60
2022-10-01T01:00:48.838Z,11.80
2022-10-01T01:04:50.539Z,12.30
2022-10-01T01:08:55.096Z,12.00
2022-10-01T01:13:25.194Z,12.40
2022-10-01T01:17:40.431Z,12.60
2022-10-01T01:21:52.068Z,12.50
2022-10-01T01:26:14.182Z,12.20
2022-10-01T01:30:18.270Z,11.90
2022-10-01T01:34:24.403Z,11.90
2022-10-01T01:38:30.245Z,12.10
2022-10-01T01:42:37.239Z,12.30
2022-10-01T01:46:43.763Z,12.30
2022-10-01T01:50:52.897Z,11.80
2022-10-01T01:54:55.396Z,11.80
2022-10-01T01:58:59.287Z,12.10
2022-10-01T02:03:01.570Z,11.90
2022-10-01T02:07:24.856Z,12.00
2022-10-01T02:11:30.538Z,12.00
2022-10-01T02:16:04.289Z,11.70
2022-10-01T02:20:21.237Z,11.70
2022-10-01T02:24:57.108Z,11.60
2022-10-01T02:29:03.811Z,11.70
2022-10-01T02:33:09.710Z,11.70
2022-10-01T02:37:12.259Z,11.80
2022-10-01T02:41:18.648Z,11.30
2022-10-01T02:45:25.776Z,11.60
2022-10-01T02:49:30.981Z,11.70
2022-10-01T02:53:40.831Z,11.50
2022-10-01T02:57:42.773Z,11.70
2022-10-01T03:01:44.813Z,12.00
2022-10-01T03:05:46.566Z,11.80
2022-10-01T03:09:49.446Z,11.70
2022-10-01T03:13:51.110Z,11.60
2022-10-01T03:17:53.581Z,12.00
2022-10-01T03:21:56.459Z,11.80
2022-10-01T03:25:58.183Z,11.70
2022-10-01T03:29:59.884Z,12.00
2022-10-01T03:34:01.578Z,11.90
2022-10-01T03:38:03.313Z,12.10
2022-10-01T03:42:06.007Z,11.80
2022-10-01T03:46:07.783Z,12.00
2022-10-01T03:50:09.529Z,12.40
2022-10-01T03:54:11.279Z,12.30
2022-10-01T03:58:13.050Z,12.50
2022-10-01T04:02:14.805Z,12.10
2022-10-01T04:06:16.973Z,11.50
2022-10-01T04:10:19.145Z,11.40
2022-10-01T04:14:20.861Z,11.80
2022-10-01T04:18:22.759Z,11.80
2022-10-01T04:22:24.474Z,12.00
2022-10-01T04:26:26.231Z,12.30
2022-10-01T04:30:33.769Z,12.40
2022-10-01T04:34:53.401Z,12.10
2022-10-01T04:39:01.693Z,11.90
2022-10-01T04:43:08.345Z,11.60
2022-10-01T04:47:10.303Z,12.10
2022-10-01T04:51:11.973Z,12.00
2022-10-01T04:55:15.719Z,12.10
2022-10-01T04:59:18.309Z,12.00
2022-10-01T05:03:20.010Z,12.30
2022-10-01T05:07:25.361Z,12.30
2022-10-01T05:11:27.343Z,12.20
2022-10-01T05:15:30.218Z,12.40
2022-10-01T05:19:32.012Z,12.30
2022-10-01T05:23:34.240Z,12.40
2022-10-01T05:27:37.718Z,12.80
2022-10-01T05:31:44.432Z,12.70
2022-10-01T05:35:46.240Z,12.60
2022-10-01T05:39:48.346Z,12.40
2022-10-01T05:43:51.224Z,12.40
2022-10-01T05:48:01.745Z,12.70
2022-10-01T05:52:04.587Z,12.00
2022-10-01T05:56:07.711Z,12.00
2022-10-01T06:00:10.003Z,12.30
2022-10-01T06:04:11.735Z,12.60
2022-10-01T06:08:13.488Z,12.70
2022-10-01T06:12:19.721Z,12.60
2022-10-01T06:16:21.798Z,12.90
2022-10-01T06:20:24.049Z,13.10
2022-10-01T06:24:26.265Z,13.30
2022-10-01T06:28:28.587Z,13.50
2022-10-01T06:32:34.138Z,13.80
2022-10-01T06:36:36.670Z,14.10
2022-10-01T06:40:39.259Z,13.90
2022-10-01T06:44:42.466Z,14.10
2022-10-01T06:48:44.160Z,14.40
2022-10-01T06:52:48.938Z,14.20
2022-10-01T06:56:50.641Z,14.10
2022-10-01T07:00:57.655Z,14.10
2022-10-01T07:04:59.611Z,14.30
2022-10-01T07:09:01.524Z,14.20
2022-10-01T07:13:14.185Z,14.30
2022-10-01T07:17:15.948Z,14.50
2022-10-01T07:21:17.610Z,14.40
2022-10-01T07:25:19.266Z,14.50
2022-10-01T07:29:23.070Z,14.30
2022-10-01T07:33:24.784Z,14.60
2022-10-01T07:37:26.449Z,14.30
2022-10-01T07:41:28.197Z,14.00
2022-10-01T07:45:29.886Z,14.20
2022-10-01T07:49:31.708Z,14.30
2022-10-01T07:53:33.403Z,14.30
2022-10-01T07:57:35.035Z,13.80
2022-10-01T08:01:39.752Z,14.00
2022-10-01T08:05:46.447Z,14.70
2022-10-01T08:09:49.084Z,14.00
2022-10-01T08:13:50.790Z,14.10
2022-10-01T08:17:52.497Z,13.30
2022-10-01T08:21:54.238Z,12.80
2022-10-01T08:26:00.825Z,13.10
2022-10-01T08:30:02.551Z,13.00
2022-10-01T08:34:04.250Z,13.30
2022-10-01T08:38:06.625Z,13.70
2022-10-01T08:42:23.409Z,13.70
2022-10-01T08:46:30.114Z,13.30
2022-10-01T08:50:47.103Z,13.50
2022-10-01T08:54:51.811Z,13.00
2022-10-01T08:58:59.025Z,13.70
2022-10-01T09:03:05.533Z,13.90
2022-10-01T09:07:41.848Z,14.20
2022-10-01T09:12:09.619Z,14.30
2022-10-01T09:16:35.554Z,14.50
2022-10-01T09:20:57.683Z,14.10
2022-10-01T09:24:59.340Z,13.90
2022-10-01T09:29:03.051Z,13.90
2022-10-01T09:33:12.842Z,13.80
2022-10-01T09:37:14.955Z,14.00
2022-10-01T09:41:18.035Z,14.10
2022-10-01T09:45:20.879Z,13.90
2022-10-01T09:49:39.615Z,13.50
2022-10-01T09:54:38.017Z,13.30
2022-10-01T09:58:45.157Z,13.00
2022-10-01T10:02:49.846Z,13.10
2022-10-01T10:06:59.577Z,13.50
2022-10-01T10:11:12.130Z,13.60
2022-10-01T10:15:22.013Z,13.70
2022-10-01T10:19:27.310Z,14.00
2022-10-01T10:23:29.398Z,13.70
2022-10-01T10:27:31.234Z,14.00
2022-10-01T10:31:44.538Z,13.10
2022-10-01T10:35:46.633Z,13.40
2022-10-01T10:39:53.978Z,14.20
2022-10-01T10:44:00.525Z,14.40
2022-10-01T10:48:05.428Z,14.00
2022-10-01T10:52:20.849Z,14.50
2022-10-01T10:56:24.572Z,14.50
2022-10-01T11:00:26.542Z,14.90
2022-10-01T11:04:31.007Z,14.80
2022-10-01T11:08:33.427Z,14.40
2022-10-01T11:12:47.254Z,14.60
2022-10-01T11:16:48.977Z,14.40
2022-10-01T11:21:03.212Z,14.80
2022-10-01T11:25:21.912Z,15.30
2022-10-01T11:29:41.860Z,15.40
2022-10-01T11:34:15.886Z,15.40
2022-10-01T11:38:23.668Z,15.40
2022-10-01T11:42:34.775Z,15.50
2022-10-01T11:46:41.164Z,15.00
2022-10-01T11:50:49.387Z,14.50
2022-10-01T11:55:38.777Z,13.90
2022-10-01T12:00:11.204Z,14.00
2022-10-01T12:04:24.981Z,14.20
2022-10-01T12:08:32.532Z,13.70
2022-10-01T12:13:07.558Z,14.50
2022-10-01T12:17:18.034Z,14.00
2022-10-01T12:21:37.873Z,14.30
2022-10-01T12:26:03.427Z,14.20
2022-10-01T12:30:36.884Z,14.10
2022-10-01T12:35:00.009Z,13.70
2022-10-01T12:39:19.189Z,13.60
2022-10-01T12:43:40.014Z,13.80
2022-10-01T12:48:06.652Z,14.20
2022-10-01T12:52:34.971Z,14.00
2022-10-01T12:56:43.752Z,14.10
2022-10-01T13:00:57.039Z,14.00
2022-10-01T13:05:17.285Z,14.10
2022-10-01T13:09:48.793Z,14.70
2022-10-01T13:13:52.129Z,14.30
2022-10-01T13:17:56.826Z,14.00
2022-10-01T13:22:32.431Z,14.50
2022-10-01T13:26:50.312Z,14.70
2022-10-01T13:30:59.024Z,14.70
2022-10-01T13:35:20.698Z,14.80
2022-10-01T13:39:23.999Z,14.60
2022-10-01T13:43:25.933Z,14.80
2022-10-01T13:47:28.500Z,14.30
2022-10-01T13:51:37.788Z,15.10
2022-10-01T13:55:42.032Z,15.00
2022-10-01T13:59:43.973Z,14.90
2022-10-01T14:04:05.144Z,15.20
2022-10-01T14:08:13.992Z,15.80
2022-10-01T14:12:53.946Z,16.00
2022-10-01T14:16:56.584Z,16.50
2022-10-01T14:21:39.446Z,16.70
2022-10-01T14:26:03.665Z,16.20
2022-10-01T14:30:19.656Z,16.10
2022-10-01T14:34:24.372Z,15.70
2022-10-01T14:38:26.121Z,15.90
2022-10-01T14:42:27.866Z,16.00
2022-10-01T14:46:29.574Z,16.40
2022-10-01T14:50:34.939Z,15.90
2022-10-01T14:54:45.883Z,15.70
2022-10-01T14:58:54.361Z,16.30
2022-10-01T15:03:10.087Z,16.00
2022-10-01T15:07:17.065Z,16.20
2022-10-01T15:11:27.625Z,16.40
2022-10-01T15:15:39.689Z,16.80
2022-10-01T15:19:45.792Z,16.70
2022-10-01T15:23:48.767Z,16.80
2022-10-01T15:27:50.548Z,17.20
2022-10-01T15:31:53.668Z,17.20
2022-10-01T15:35:57.949Z,17.00
2022-10-01T15:40:01.016Z,17.20
2022-10-01T15:44:05.407Z,17.30
2022-10-01T15:48:26.999Z,17.20
2022-10-01T15:52:54.464Z,17.10
2022-10-01T15:56:56.149Z,16.80
2022-10-01T16:01:10.780Z,16.50
2022-10-01T16:05:18.075Z,16.60
2022-10-01T16:09:29.735Z,16.50
2022-10-01T16:13:39.235Z,16.10
2022-10-01T16:17:52.424Z,16.30
2022-10-01T16:22:26.541Z,16.40
2022-10-01T16:26:28.273Z,15.80
2022-10-01T16:30:32.093Z,15.90
2022-10-01T16:34:33.723Z,15.80
2022-10-01T16:38:35.367Z,16.40
2022-10-01T16:42:37.584Z,15.80
2022-10-01T16:46:39.834Z,15.90
2022-10-01T16:50:42.620Z,16.00
2022-10-01T16:54:44.993Z,16.10
2022-10-01T16:58:46.658Z,16.10
2022-10-01T17:02:48.558Z,15.50
2022-10-01T17:06:50.601Z,15.40
2022-10-01T17:11:00.255Z,15.40
2022-10-01T17:15:02.376Z,15.90
2022-10-01T17:19:04.056Z,15.60
2022-10-01T17:23:06.276Z,15.30
2022-10-01T17:27:07.909Z,15.70
2022-10-01T17:31:12.190Z,15.50
2022-10-01T17:35:16.452Z,15.80
2022-10-01T17:39:18.129Z,16.10
2022-10-01T17:43:19.835Z,16.30
2022-10-01T17:47:21.486Z,15.60
2022-10-01T17:51:23.766Z,15.70
2022-10-01T17:55:25.585Z,15.60
2022-10-01T17:59:27.304Z,15.50
2022-10-01T18:03:29.108Z,15.40
2022-10-01T18:07:30.792Z,15.50
2022-10-01T18:11:33.089Z,15.80
2022-10-01T18:15:34.775Z,15.90
2022-10-01T18:19:53.875Z,15.90
2022-10-01T18:23:58.518Z,15.80
2022-10-01T18:28:02.347Z,16.00
2022-10-01T18:32:24.399Z,15.90
2022-10-01T18:36:57.893Z,16.10
2022-10-01T18:41:05.806Z,16.00
2022-10-01T18:45:17.761Z,16.10
2022-10-01T18:49:37.544Z,15.50
2022-10-01T18:54:03.834Z,15.70
2022-10-01T18:58:19.195Z,16.10
2022-10-01T19:02:27.689Z,16.00
2022-10-01T19:06:58.847Z,16.00
2022-10-01T19:11:07.318Z,16.00
2022-10-01T19:15:35.822Z,16.20
2022-10-01T19:19:52.565Z,16.60
2022-10-01T19:24:35.756Z,16.20
2022-10-01T19:28:55.592Z,15.90
2022-10-01T19:33:04.948Z,16.10
2022-10-01T19:37:14.717Z,16.00
2022-10-01T19:41:36.600Z,15.60
2022-10-01T19:46:09.539Z,15.30
2022-10-01T19:50:26.214Z,15.00
2022-10-01T19:54:34.157Z,15.00
2022-10-01T19:58:35.821Z,15.80
2022-10-01T20:02:47.088Z,15.90
2022-10-01T20:06:48.880Z,15.50
2022-10-01T20:11:03.767Z,15.70
2022-10-01T20:15:24.027Z,15.20
2022-10-01T20:19:46.081Z,15.70
2022-10-01T20:24:28.853Z,15.30
2022-10-01T20:28:55.526Z,15.50
2022-10-01T20:33:06.275Z,15.00
2022-10-01T20:37:23.037Z,15.40
2022-10-01T20:41:27.186Z,15.20
2022-10-01T20:45:33.336Z,15.90
2022-10-01T20:49:55.300Z,16.10
2022-10-01T20:54:10.928Z,16.00
2022-10-01T20:58:19.736Z,16.10
2022-10-01T21:02:28.923Z,16.50
2022-10-01T21:06:53.241Z,16.30
2022-10-01T21:11:00.454Z,15.00
2022-10-01T21:15:04.003Z,15.50
2022-10-01T21:19:32.857Z,15.90
2022-10-01T21:23:43.594Z,15.70
2022-10-01T21:28:01.647Z,16.30
2022-10-01T21:32:21.673Z,15.90
2022-10-01T21:36:55.855Z,15.90
2022-10-01T21:41:04.177Z,15.30
2022-10-01T21:45:16.602Z,16.10
2022-10-01T21:49:53.793Z,16.60
2022-10-01T21:54:06.126Z,16.90
2022-10-01T21:58:10.617Z,17.50
2022-10-01T22:02:21.237Z,17.50
2022-10-01T22:06:40.013Z,17.60
2022-10-01T22:10:47.219Z,17.60
2022-10-01T22:14:51.688Z,17.40
2022-10-01T22:19:00.092Z,17.40
2022-10-01T22:23:08.792Z,17.10
2022-10-01T22:27:16.593Z,17.00
2022-10-01T22:31:31.354Z,17.00
2022-10-01T22:35:39.537Z,17.20
2022-10-01T22:39:49.166Z,17.20
2022-10-01T22:43:51.047Z,17.30
2022-10-01T22:48:22.478Z,16.90
2022-10-01T22:52:56.823Z,16.70
2022-10-01T22:57:10.546Z,16.40
2022-10-01T23:01:49.516Z,16.00
2022-10-01T23:05:54.663Z,16.60
2022-10-01T23:10:05.372Z,16.60
2022-10-01T23:14:18.645Z,16.90
2022-10-01T23:18:23.386Z,16.40
2022-10-01T23:22:53.979Z,16.90
2022-10-01T23:27:27.781Z,16.60
2022-10-01T23:31:57.436Z,16.90
2022-10-01T23:36:14.520Z,16.60
2022-10-01T23:40:27.714Z,16.40
2022-10-01T23:44:52.065Z,16.10
2022-10-01T23:49:15.528Z,15.80
2022-10-01T23:53:30.478Z,16.70
2022-10-01T23:57:37.769Z,16.60
